Time;durP1;ratioP1;P1;durP2;ratioP2;P2;SDS_P1;SDS_P2;PMS_P1;PMS_P2;Temp;Humidity;BMP_temperature;BMP_pressure;BME280_temperature;BME280_humidity;BME280_pressure;Samples;Min_cycle;Max_cycle;Signal;HPM_P1;HPM_P2
2020/12/26 00:00:37;;;;;;;18.10;8.88;;;;;;;;;;5072527;28;20020;-67
2020/12/26 00:03:02;;;;;;;17.98;8.18;;;;;;;;;;5054527;28;20069;-67
2020/12/26 00:05:28;;;;;;;16.02;8.00;;;;;;;;;;5054657;28;20030;-67
2020/12/26 00:07:53;;;;;;;14.48;7.43;;;;;;;;;;5054676;28;20019;-67
2020/12/26 00:10:20;;;;;;;16.98;8.63;;;;;;;;;;5072337;28;20021;-67
2020/12/26 00:12:47;;;;;;;17.48;8.13;;;;;;;;;;5054633;28;20028;-67
2020/12/26 00:15:13;;;;;;;18.17;7.82;;;;;;;;;;5054359;28;20035;-67
2020/12/26 00:17:38;;;;;;;15.15;7.28;;;;;;;;;;5071593;28;20020;-67
2020/12/26 00:20:04;;;;;;;18.42;8.10;;;;;;;;;;5072386;28;20021;-67
2020/12/26 00:22:29;;;;;;;20.42;8.52;;;;;;;;;;5037752;28;20013;-67
2020/12/26 00:24:55;;;;;;;20.70;8.27;;;;;;;;;;5072400;28;20017;-67
2020/12/26 00:27:20;;;;;;;17.83;7.80;;;;;;;;;;5054598;28;20025;-67
2020/12/26 00:29:45;;;;;;;16.60;7.72;;;;;;;;;;5073673;28;20357;-67
2020/12/26 00:32:11;;;;;;;14.88;7.88;;;;;;;;;;5058068;28;20021;-67
2020/12/26 00:34:38;;;;;;;20.73;8.82;;;;;;;;;;5076173;28;20026;-67
2020/12/26 00:37:03;;;;;;;17.88;8.75;;;;;;;;;;5058426;28;20024;-67
2020/12/26 00:39:29;;;;;;;17.05;7.95;;;;;;;;;;5058584;28;20028;-67
2020/12/26 00:41:54;;;;;;;19.23;8.70;;;;;;;;;;5076408;28;20042;-67
2020/12/26 00:44:20;;;;;;;13.38;7.53;;;;;;;;;;5076028;28;20029;-67
2020/12/26 00:46:45;;;;;;;18.05;8.82;;;;;;;;;;5075303;28;20025;-67
2020/12/26 00:49:11;;;;;;;17.08;7.70;;;;;;;;;;5076089;28;20059;-67
2020/12/26 00:51:37;;;;;;;15.95;8.23;;;;;;;;;;5057975;28;20017;-67
2020/12/26 00:54:02;;;;;;;23.73;9.45;;;;;;;;;;5058126;28;20047;-67
2020/12/26 00:56:28;;;;;;;20.10;9.00;;;;;;;;;;5075868;28;20017;-67
2020/12/26 00:58:53;;;;;;;20.73;8.65;;;;;;;;;;5076031;28;20078;-67
2020/12/26 01:01:18;;;;;;;23.48;8.68;;;;;;;;;;5075885;28;20024;-67
2020/12/26 01:03:44;;;;;;;24.77;9.10;;;;;;;;;;5076160;28;20013;-67
2020/12/26 01:06:19;;;;;;;24.65;9.23;;;;;;;;;;5075461;28;20020;-67
2020/12/26 01:08:44;;;;;;;28.33;11.30;;;;;;;;;;5075713;28;20358;-67
2020/12/26 01:11:10;;;;;;;36.97;11.57;;;;;;;;;;5075805;28;20050;-67
2020/12/26 01:13:35;;;;;;;34.55;11.90;;;;;;;;;;5057530;28;20060;-67
2020/12/26 01:16:01;;;;;;;21.75;9.27;;;;;;;;;;5056532;28;20023;-67
2020/12/26 01:18:28;;;;;;;18.98;8.82;;;;;;;;;;5075523;28;20024;-67
2020/12/26 01:20:55;;;;;;;21.85;9.38;;;;;;;;;;5075648;28;20028;-67
2020/12/26 01:23:20;;;;;;;21.23;7.90;;;;;;;;;;5075597;28;20016;-67
2020/12/26 01:25:47;;;;;;;21.15;9.38;;;;;;;;;;5075340;28;20019;-67
2020/12/26 01:28:13;;;;;;;22.65;10.40;;;;;;;;;;5075056;28;20481;-67
2020/12/26 01:30:38;;;;;;;23.73;9.63;;;;;;;;;;5075179;28;20028;-67
2020/12/26 01:33:03;;;;;;;20.17;10.60;;;;;;;;;;5075061;28;20166;-67
2020/12/26 01:35:29;;;;;;;27.33;11.93;;;;;;;;;;5075085;28;20060;-67
2020/12/26 01:37:55;;;;;;;23.48;11.00;;;;;;;;;;5057086;28;20020;-67
2020/12/26 01:40:20;;;;;;;26.55;12.57;;;;;;;;;;5056860;28;20021;-67
2020/12/26 01:42:46;;;;;;;25.17;12.15;;;;;;;;;;5040428;28;20024;-67
2020/12/26 01:45:12;;;;;;;24.33;12.05;;;;;;;;;;5057172;28;20017;-67
2020/12/26 01:47:37;;;;;;;25.42;11.93;;;;;;;;;;5074627;28;20027;-67
2020/12/26 01:50:03;;;;;;;23.70;12.13;;;;;;;;;;5074934;28;20016;-66
2020/12/26 01:52:28;;;;;;;26.63;12.00;;;;;;;;;;5075146;28;20048;-67
2020/12/26 01:54:54;;;;;;;27.33;12.63;;;;;;;;;;5056969;28;20070;-67
2020/12/26 01:57:20;;;;;;;21.23;11.52;;;;;;;;;;5057286;28;20071;-67
2020/12/26 01:59:46;;;;;;;23.92;11.73;;;;;;;;;;5075105;28;20020;-67
2020/12/26 02:02:11;;;;;;;26.55;13.50;;;;;;;;;;5074499;28;20027;-67
2020/12/26 02:04:37;;;;;;;30.60;12.43;;;;;;;;;;5075141;28;20020;-67
2020/12/26 02:07:04;;;;;;;24.60;12.65;;;;;;;;;;5074673;28;20017;-67
2020/12/26 02:09:30;;;;;;;26.40;13.10;;;;;;;;;;5040337;28;20035;-67
2020/12/26 02:11:56;;;;;;;27.63;12.80;;;;;;;;;;5074628;28;20021;-67
2020/12/26 02:14:22;;;;;;;24.52;12.68;;;;;;;;;;5056292;28;20081;-67
2020/12/26 02:16:50;;;;;;;24.13;12.32;;;;;;;;;;5073570;28;20025;-67
2020/12/26 02:19:16;;;;;;;24.88;12.73;;;;;;;;;;5056606;28;20094;-67
2020/12/26 02:21:42;;;;;;;27.48;13.65;;;;;;;;;;5074387;28;20056;-67
2020/12/26 02:24:09;;;;;;;26.17;14.00;;;;;;;;;;5074187;28;20495;-67
2020/12/26 02:26:34;;;;;;;25.50;12.73;;;;;;;;;;5074576;28;20380;-67
2020/12/26 02:29:00;;;;;;;31.40;14.10;;;;;;;;;;5074483;28;20024;-67
2020/12/26 02:31:25;;;;;;;26.88;13.25;;;;;;;;;;5056233;28;20035;-67
2020/12/26 02:33:51;;;;;;;22.75;11.75;;;;;;;;;;5056053;28;20059;-67
2020/12/26 02:36:16;;;;;;;23.92;11.35;;;;;;;;;;5073981;28;20020;-67
2020/12/26 02:38:42;;;;;;;20.77;11.82;;;;;;;;;;5073839;28;20355;-67
2020/12/26 02:41:08;;;;;;;23.55;11.57;;;;;;;;;;5039543;28;20017;-67
2020/12/26 02:43:33;;;;;;;21.52;10.95;;;;;;;;;;5073929;28;20042;-67
2020/12/26 02:45:59;;;;;;;21.50;10.95;;;;;;;;;;5073031;28;20278;-67
2020/12/26 02:48:24;;;;;;;23.52;11.45;;;;;;;;;;5073696;28;20016;-67
2020/12/26 02:50:50;;;;;;;23.13;11.40;;;;;;;;;;5055963;28;20020;-66
2020/12/26 02:53:16;;;;;;;26.02;12.98;;;;;;;;;;5055304;28;20403;-66
2020/12/26 02:55:41;;;;;;;19.23;10.45;;;;;;;;;;5073514;28;20038;-67
2020/12/26 02:58:07;;;;;;;23.35;11.82;;;;;;;;;;5073681;28;20047;-67
2020/12/26 03:00:32;;;;;;;20.88;11.07;;;;;;;;;;5055859;28;20401;-67
2020/12/26 03:02:59;;;;;;;19.45;10.25;;;;;;;;;;5073433;28;20016;-67
2020/12/26 03:05:25;;;;;;;18.85;10.30;;;;;;;;;;5073519;28;20021;-67
2020/12/26 03:07:54;;;;;;;18.48;10.52;;;;;;;;;;5055900;28;20021;-67
2020/12/26 03:10:19;;;;;;;18.70;9.80;;;;;;;;;;5073299;28;20035;-67
2020/12/26 03:12:45;;;;;;;18.10;8.95;;;;;;;;;;5073371;28;20017;-67
2020/12/26 03:15:10;;;;;;;21.67;10.52;;;;;;;;;;5073029;28;20408;-67
2020/12/26 03:17:36;;;;;;;18.67;9.15;;;;;;;;;;5072677;28;20020;-67
2020/12/26 03:20:01;;;;;;;19.83;10.10;;;;;;;;;;5073233;28;20070;-66
2020/12/26 03:22:27;;;;;;;19.33;9.68;;;;;;;;;;5073462;28;20040;-67
2020/12/26 03:24:53;;;;;;;18.52;9.60;;;;;;;;;;5055304;28;20104;-67
2020/12/26 03:27:19;;;;;;;19.98;9.98;;;;;;;;;;5055395;28;20036;-66
2020/12/26 03:29:44;;;;;;;22.27;11.02;;;;;;;;;;5072891;28;20536;-67
2020/12/26 03:32:10;;;;;;;21.05;10.38;;;;;;;;;;5072512;28;20020;-67
2020/12/26 03:34:35;;;;;;;18.65;9.95;;;;;;;;;;5072835;28;20024;-67
2020/12/26 03:37:01;;;;;;;19.92;10.68;;;;;;;;;;5055019;28;20103;-67
2020/12/26 03:39:26;;;;;;;22.88;10.85;;;;;;;;;;5038525;28;20035;-67
2020/12/26 03:41:52;;;;;;;20.38;10.48;;;;;;;;;;5072878;28;20020;-67
2020/12/26 03:44:17;;;;;;;20.02;10.07;;;;;;;;;;5072673;28;20484;-67
2020/12/26 03:46:42;;;;;;;27.73;10.52;;;;;;;;;;5072275;28;20032;-67
2020/12/26 03:49:08;;;;;;;16.77;9.55;;;;;;;;;;5054815;28;20473;-66
2020/12/26 03:51:34;;;;;;;24.02;10.75;;;;;;;;;;5073095;28;20024;-66
2020/12/26 03:53:59;;;;;;;23.33;11.38;;;;;;;;;;5072470;28;20021;-66
2020/12/26 03:56:25;;;;;;;24.20;11.50;;;;;;;;;;5073014;28;20104;-67
2020/12/26 03:58:50;;;;;;;20.77;10.55;;;;;;;;;;5072505;28;20366;-67
2020/12/26 04:01:16;;;;;;;16.70;9.32;;;;;;;;;;5072619;28;20024;-67
2020/12/26 04:03:41;;;;;;;21.02;10.98;;;;;;;;;;5072367;28;20032;-67
2020/12/26 04:06:07;;;;;;;19.70;10.27;;;;;;;;;;5071982;28;20052;-67
2020/12/26 04:08:33;;;;;;;23.15;11.15;;;;;;;;;;5072562;28;20056;-67
2020/12/26 04:10:58;;;;;;;19.00;11.30;;;;;;;;;;5072399;28;20043;-66
2020/12/26 04:13:24;;;;;;;21.60;11.40;;;;;;;;;;5072395;28;20473;-67
2020/12/26 04:15:49;;;;;;;23.20;11.27;;;;;;;;;;5071717;28;20032;-67
2020/12/26 04:18:15;;;;;;;23.77;11.98;;;;;;;;;;5072276;28;20059;-66
2020/12/26 04:20:40;;;;;;;25.67;11.63;;;;;;;;;;5072454;28;20020;-66
2020/12/26 04:23:06;;;;;;;21.80;11.55;;;;;;;;;;5072255;28;20056;-66
2020/12/26 04:25:32;;;;;;;23.88;11.57;;;;;;;;;;5072332;28;20024;-66
2020/12/26 04:27:57;;;;;;;28.80;12.43;;;;;;;;;;5054387;28;20046;-67
2020/12/26 04:30:23;;;;;;;20.80;10.82;;;;;;;;;;5072460;28;20073;-67
2020/12/26 04:32:49;;;;;;;24.52;11.48;;;;;;;;;;5054287;28;20052;-67
2020/12/26 04:35:14;;;;;;;27.73;12.82;;;;;;;;;;5054532;28;20039;-67
2020/12/26 04:37:40;;;;;;;21.35;11.98;;;;;;;;;;5072421;28;20397;-66
2020/12/26 04:40:05;;;;;;;22.98;11.63;;;;;;;;;;5071997;28;20025;-67
2020/12/26 04:42:31;;;;;;;23.65;12.55;;;;;;;;;;5054306;28;20509;-67
2020/12/26 04:44:57;;;;;;;24.52;12.18;;;;;;;;;;5037691;28;20017;-67
2020/12/26 04:47:28;;;;;;;28.02;12.82;;;;;;;;;;5053575;28;20024;-67
2020/12/26 04:49:58;;;;;;;32.05;12.82;;;;;;;;;;5071984;28;20017;-67
2020/12/26 04:52:25;;;;;;;25.58;12.10;;;;;;;;;;5054481;28;20024;-67
2020/12/26 04:54:52;;;;;;;22.50;11.63;;;;;;;;;;5072066;28;20086;-67
2020/12/26 04:57:19;;;;;;;22.55;11.27;;;;;;;;;;5072333;28;20369;-67
2020/12/26 04:59:45;;;;;;;23.00;11.38;;;;;;;;;;5054263;28;20016;-66
2020/12/26 05:02:12;;;;;;;21.50;10.75;;;;;;;;;;5071696;28;20081;-67
2020/12/26 05:04:38;;;;;;;20.63;10.15;;;;;;;;;;5054180;28;20020;-67
2020/12/26 05:07:04;;;;;;;19.75;10.40;;;;;;;;;;5072041;28;20081;-67
2020/12/26 05:09:29;;;;;;;20.45;10.75;;;;;;;;;;5054179;28;20028;-67
2020/12/26 05:11:56;;;;;;;23.17;9.85;;;;;;;;;;5071913;28;20024;-67
2020/12/26 05:14:22;;;;;;;24.35;10.90;;;;;;;;;;5071610;28;20489;-67
2020/12/26 05:16:48;;;;;;;18.70;10.10;;;;;;;;;;5073738;28;20389;-67
2020/12/26 05:19:13;;;;;;;19.02;10.40;;;;;;;;;;5075437;28;20016;-67
2020/12/26 05:21:39;;;;;;;20.05;9.93;;;;;;;;;;5075711;28;20028;-67
2020/12/26 05:24:05;;;;;;;20.02;10.85;;;;;;;;;;5075266;28;20209;-67
2020/12/26 05:26:37;;;;;;;19.40;10.30;;;;;;;;;;5075535;28;20451;-66
2020/12/26 05:29:03;;;;;;;19.58;9.02;;;;;;;;;;5075335;28;20544;-67
2020/12/26 05:31:38;;;;;;;20.58;9.02;;;;;;;;;;5075618;28;20099;-67
2020/12/26 05:34:07;;;;;;;17.50;9.00;;;;;;;;;;5074766;28;20040;-66
2020/12/26 05:36:32;;;;;;;;;;;;;;;;;;5057785;28;20020;-67
2020/12/26 05:38:58;;;;;;;21.15;9.85;;;;;;;;;;5075235;28;19904;-67
2020/12/26 05:41:24;;;;;;;17.33;8.23;;;;;;;;;;5075491;28;20021;-67
2020/12/26 05:43:50;;;;;;;17.35;9.27;;;;;;;;;;5074830;28;20025;-67
2020/12/26 05:46:16;;;;;;;18.45;9.07;;;;;;;;;;5056382;28;20078;-67
2020/12/26 05:48:41;;;;;;;16.30;8.48;;;;;;;;;;5057144;28;20052;-67
2020/12/26 05:51:07;;;;;;;13.73;8.00;;;;;;;;;;5057206;28;20508;-67
2020/12/26 05:53:33;;;;;;;17.20;9.23;;;;;;;;;;5074837;28;20032;-66
2020/12/26 05:55:59;;;;;;;18.35;9.00;;;;;;;;;;5074664;28;20089;-68
2020/12/26 05:58:25;;;;;;;17.77;8.93;;;;;;;;;;5056820;28;20497;-66
2020/12/26 06:00:51;;;;;;;15.13;8.55;;;;;;;;;;5057202;28;20024;-67
2020/12/26 06:03:26;;;;;;;15.20;7.85;;;;;;;;;;5056926;28;20048;-66
2020/12/26 06:05:53;;;;;;;18.20;8.48;;;;;;;;;;5074801;28;20070;-67
2020/12/26 06:08:20;;;;;;;16.33;8.38;;;;;;;;;;5056798;28;20020;-66
2020/12/26 06:10:48;;;;;;;17.05;7.57;;;;;;;;;;5056977;28;20032;-67
2020/12/26 06:13:15;;;;;;;16.52;8.25;;;;;;;;;;5074695;28;20078;-67
2020/12/26 06:15:45;;;;;;;17.95;8.13;;;;;;;;;;5073820;28;20033;-67
2020/12/26 06:18:10;;;;;;;;;;;;;;;;;;5056822;28;20020;-67
2020/12/26 06:20:35;;;;;;;17.00;8.15;;;;;;;;;;5074427;28;19953;-67
2020/12/26 06:23:01;;;;;;;16.30;8.32;;;;;;;;;;5074347;28;20021;-66
2020/12/26 06:25:29;;;;;;;16.10;8.07;;;;;;;;;;5056344;28;20013;-66
2020/12/26 06:27:58;;;;;;;17.02;7.90;;;;;;;;;;5055435;28;20086;-67
2020/12/26 06:30:24;;;;;;;17.75;8.68;;;;;;;;;;5074219;28;20025;-66
2020/12/26 06:32:50;;;;;;;15.65;7.65;;;;;;;;;;5056129;28;20097;-67
2020/12/26 06:35:15;;;;;;;21.27;8.40;;;;;;;;;;5056192;28;20025;-67
2020/12/26 06:37:41;;;;;;;14.20;7.65;;;;;;;;;;5074353;28;20461;-67
2020/12/26 06:40:27;;;;;;;14.70;7.35;;;;;;;;;;5073808;28;20052;-67
2020/12/26 06:42:52;;;;;;;17.10;7.47;;;;;;;;;;5059367;28;20362;-67
2020/12/26 06:45:34;;;;;;;18.00;7.82;;;;;;;;;;5056131;28;20046;-67
2020/12/26 06:47:59;;;;;;;13.88;6.93;;;;;;;;;;5055137;28;20165;-67
2020/12/26 06:50:26;;;;;;;13.48;7.03;;;;;;;;;;5056312;28;20529;-67
2020/12/26 06:52:52;;;;;;;15.15;7.78;;;;;;;;;;5073663;28;20027;-66
2020/12/26 06:55:28;;;;;;;13.10;6.53;;;;;;;;;;5073626;28;20031;-66
2020/12/26 06:57:53;;;;;;;15.90;8.07;;;;;;;;;;5073618;28;20032;-67
2020/12/26 07:00:28;;;;;;;15.43;6.60;;;;;;;;;;5073401;28;20024;-67
2020/12/26 07:03:03;;;;;;;17.45;7.20;;;;;;;;;;5073498;28;20024;-67
2020/12/26 07:05:38;;;;;;;15.80;6.75;;;;;;;;;;5073768;28;20418;-67
2020/12/26 07:08:03;;;;;;;14.27;7.15;;;;;;;;;;5055444;28;20028;-67
2020/12/26 07:10:33;;;;;;;17.60;7.78;;;;;;;;;;5073440;28;20074;-67
2020/12/26 07:12:59;;;;;;;15.82;7.20;;;;;;;;;;5073336;28;20013;-67
2020/12/26 07:15:34;;;;;;;14.02;7.45;;;;;;;;;;5073372;28;20481;-67
2020/12/26 07:18:09;;;;;;;14.95;7.07;;;;;;;;;;5072278;28;20031;-67
2020/12/26 07:20:34;;;;;;;13.05;7.45;;;;;;;;;;5073235;28;20385;-66
2020/12/26 07:23:17;;;;;;;14.98;8.00;;;;;;;;;;5073157;28;20091;-67
2020/12/26 07:25:43;;;;;;;16.38;7.85;;;;;;;;;;5055368;28;20020;-67
2020/12/26 07:28:12;;;;;;;18.95;8.20;;;;;;;;;;5072796;28;20104;-66
2020/12/26 07:30:37;;;;;;;17.67;7.70;;;;;;;;;;5073034;28;20066;-67
2020/12/26 07:33:03;;;;;;;17.77;8.23;;;;;;;;;;5072843;28;20497;-67
2020/12/26 07:35:31;;;;;;;14.75;7.70;;;;;;;;;;5072979;28;20032;-67
2020/12/26 07:37:57;;;;;;;13.00;6.82;;;;;;;;;;5055197;28;20017;-67
2020/12/26 07:40:24;;;;;;;11.35;6.97;;;;;;;;;;5072773;28;20024;-67
2020/12/26 07:42:50;;;;;;;13.82;6.20;;;;;;;;;;5038302;28;20020;-67
2020/12/26 07:45:17;;;;;;;11.45;6.28;;;;;;;;;;5054948;28;20468;-67
2020/12/26 07:47:45;;;;;;;10.35;5.80;;;;;;;;;;5054404;28;20028;-67
2020/12/26 07:50:11;;;;;;;16.08;7.25;;;;;;;;;;5054829;28;20530;-67
2020/12/26 07:52:36;;;;;;;12.07;5.75;;;;;;;;;;5054855;28;20119;-67
2020/12/26 07:55:03;;;;;;;12.45;6.20;;;;;;;;;;5055068;28;20099;-66
2020/12/26 07:57:28;;;;;;;12.90;6.45;;;;;;;;;;5054725;28;20028;-67
2020/12/26 07:59:54;;;;;;;11.13;5.75;;;;;;;;;;5038617;28;20032;-67
2020/12/26 08:02:20;;;;;;;11.15;6.05;;;;;;;;;;5054710;28;20405;-67
2020/12/26 08:04:46;;;;;;;11.25;5.90;;;;;;;;;;5038133;28;20023;-67
2020/12/26 08:07:12;;;;;;;12.82;5.78;;;;;;;;;;5072604;28;20040;-67
2020/12/26 08:09:37;;;;;;;11.43;6.13;;;;;;;;;;5038031;28;20469;-67
2020/12/26 08:12:06;;;;;;;14.02;6.75;;;;;;;;;;5054657;28;20368;-67
2020/12/26 08:14:32;;;;;;;10.95;6.03;;;;;;;;;;5054487;28;20473;-66
2020/12/26 08:16:59;;;;;;;13.73;6.65;;;;;;;;;;5071842;28;20044;-67
2020/12/26 08:19:25;;;;;;;12.75;5.85;;;;;;;;;;5037921;28;20048;-67
2020/12/26 08:21:56;;;;;;;11.02;5.80;;;;;;;;;;5072377;28;20103;-66
2020/12/26 08:24:22;;;;;;;14.50;6.10;;;;;;;;;;5054461;28;20027;-67
2020/12/26 08:26:47;;;;;;;12.50;6.25;;;;;;;;;;5072080;28;20020;-67
2020/12/26 08:29:15;;;;;;;13.88;6.22;;;;;;;;;;5054572;28;20025;-67
2020/12/26 08:31:44;;;;;;;14.43;6.72;;;;;;;;;;5072241;28;20017;-67
2020/12/26 08:34:14;;;;;;;14.05;6.50;;;;;;;;;;5050684;28;20060;-67
2020/12/26 08:36:43;;;;;;;11.45;6.47;;;;;;;;;;5052199;28;20025;-66
2020/12/26 08:39:09;;;;;;;10.10;6.32;;;;;;;;;;5050827;28;20032;-67
2020/12/26 08:41:39;;;;;;;11.65;6.53;;;;;;;;;;5052406;28;20017;-67
2020/12/26 08:44:10;;;;;;;13.95;7.07;;;;;;;;;;5052499;28;20025;-67
2020/12/26 08:46:41;;;;;;;12.82;6.82;;;;;;;;;;5051862;28;20099;-67
2020/12/26 08:49:06;;;;;;;14.07;6.70;;;;;;;;;;5050805;28;20027;-67
2020/12/26 08:51:39;;;;;;;14.10;6.97;;;;;;;;;;5054609;28;20096;-66
2020/12/26 08:54:05;;;;;;;13.25;7.03;;;;;;;;;;5055969;28;20454;-67
2020/12/26 08:56:31;;;;;;;14.77;7.35;;;;;;;;;;5054863;28;20060;-67
2020/12/26 08:58:57;;;;;;;15.05;7.38;;;;;;;;;;5054678;28;20021;-67
2020/12/26 09:01:22;;;;;;;12.48;7.10;;;;;;;;;;5038110;28;20025;-67
2020/12/26 09:03:49;;;;;;;14.77;6.95;;;;;;;;;;5056084;28;20087;-67
2020/12/26 09:06:15;;;;;;;16.33;7.65;;;;;;;;;;5055614;28;20021;-67
2020/12/26 09:08:41;;;;;;;15.73;8.98;;;;;;;;;;5054454;28;20021;-67
2020/12/26 09:11:08;;;;;;;15.98;8.63;;;;;;;;;;5054660;28;20035;-67
2020/12/26 09:13:36;;;;;;;13.98;7.78;;;;;;;;;;5055421;28;20470;-67
2020/12/26 09:16:04;;;;;;;16.10;8.43;;;;;;;;;;5053437;28;20025;-67
2020/12/26 09:18:34;;;;;;;16.02;7.60;;;;;;;;;;5055568;28;20019;-66
2020/12/26 09:21:01;;;;;;;15.15;7.93;;;;;;;;;;5055472;28;20021;-67
2020/12/26 09:23:36;;;;;;;13.73;6.90;;;;;;;;;;5054297;28;20079;-67
2020/12/26 09:26:12;;;;;;;15.38;8.20;;;;;;;;;;5055539;28;20021;-66
2020/12/26 09:28:47;;;;;;;15.02;7.78;;;;;;;;;;5054210;28;20031;-67
2020/12/26 09:31:13;;;;;;;13.80;7.25;;;;;;;;;;5055658;28;20032;-67
2020/12/26 09:33:40;;;;;;;10.80;6.18;;;;;;;;;;5069136;28;20131;-67
2020/12/26 09:36:06;;;;;;;9.35;5.90;;;;;;;;;;5057465;28;20373;-67
2020/12/26 09:38:31;;;;;;;8.45;5.25;;;;;;;;;;5075433;28;20012;-67
2020/12/26 09:40:57;;;;;;;11.63;5.10;;;;;;;;;;5057490;28;20434;-67
2020/12/26 09:43:23;;;;;;;8.00;4.78;;;;;;;;;;5075269;28;20444;-67
2020/12/26 09:45:49;;;;;;;7.35;4.63;;;;;;;;;;5074465;28;20062;-67
2020/12/26 09:48:15;;;;;;;9.43;5.05;;;;;;;;;;5074991;28;20153;-67
2020/12/26 09:50:40;;;;;;;9.30;5.07;;;;;;;;;;5074947;28;20103;-67
2020/12/26 09:53:06;;;;;;;12.18;4.70;;;;;;;;;;5074850;28;20020;-67
2020/12/26 09:55:32;;;;;;;8.70;4.60;;;;;;;;;;5075227;28;20025;-67
2020/12/26 09:57:58;;;;;;;10.63;5.10;;;;;;;;;;5075137;28;20020;-67
2020/12/26 10:00:23;;;;;;;8.93;4.63;;;;;;;;;;5074901;28;20024;-67
2020/12/26 10:02:49;;;;;;;7.03;4.90;;;;;;;;;;5074467;28;20017;-67
2020/12/26 10:05:18;;;;;;;9.02;4.93;;;;;;;;;;5040115;28;20021;-67
2020/12/26 10:07:44;;;;;;;12.48;5.32;;;;;;;;;;5074954;28;20033;-67
2020/12/26 10:10:10;;;;;;;7.10;4.55;;;;;;;;;;5056836;28;20380;-67
2020/12/26 10:12:36;;;;;;;10.05;4.90;;;;;;;;;;5074705;28;20021;-67
2020/12/26 10:15:02;;;;;;;8.35;4.88;;;;;;;;;;5074230;28;20103;-67
2020/12/26 10:17:28;;;;;;;12.90;5.15;;;;;;;;;;5073977;28;20400;-67
2020/12/26 10:19:54;;;;;;;8.93;5.22;;;;;;;;;;5074302;28;20029;-67
2020/12/26 10:22:19;;;;;;;7.97;5.10;;;;;;;;;;5074160;28;20107;-67
2020/12/26 10:24:45;;;;;;;10.48;5.78;;;;;;;;;;5074680;28;20095;-68
2020/12/26 10:27:10;;;;;;;9.43;5.07;;;;;;;;;;5063159;28;20036;-66
2020/12/26 10:29:36;;;;;;;6.38;4.20;;;;;;;;;;5084970;28;20061;-68
2020/12/26 10:32:03;;;;;;;7.05;4.50;;;;;;;;;;5080565;28;20020;-70
2020/12/26 10:34:28;;;;;;;9.82;5.50;;;;;;;;;;5068889;28;20036;-67
2020/12/26 10:36:54;;;;;;;8.70;4.60;;;;;;;;;;5082965;28;20088;-68
2020/12/26 10:39:19;;;;;;;8.43;4.72;;;;;;;;;;5058971;28;20031;-67
2020/12/26 10:41:45;;;;;;;9.45;4.90;;;;;;;;;;5059600;28;20111;-64
2020/12/26 10:44:11;;;;;;;13.07;5.50;;;;;;;;;;5061052;28;20050;-63
2020/12/26 10:46:36;;;;;;;10.23;5.75;;;;;;;;;;5083208;28;20070;-64
2020/12/26 10:49:02;;;;;;;13.52;6.53;;;;;;;;;;5076935;28;20016;-64
2020/12/26 10:51:27;;;;;;;15.38;7.05;;;;;;;;;;5060206;28;20111;-66
2020/12/26 10:53:52;;;;;;;13.38;7.07;;;;;;;;;;5073114;28;20098;-68
2020/12/26 10:56:18;;;;;;;12.55;6.45;;;;;;;;;;5082008;28;20016;-68
2020/12/26 10:58:44;;;;;;;10.93;6.38;;;;;;;;;;5075302;28;20423;-70
2020/12/26 11:01:09;;;;;;;7.70;4.38;;;;;;;;;;5073430;28;20476;-70
2020/12/26 11:03:34;;;;;;;10.27;5.97;;;;;;;;;;5055517;28;20017;-69
2020/12/26 11:06:00;;;;;;;11.63;5.70;;;;;;;;;;5073291;28;20021;-70
2020/12/26 11:08:26;;;;;;;12.60;5.88;;;;;;;;;;5073561;28;20385;-70
2020/12/26 11:10:51;;;;;;;10.10;6.43;;;;;;;;;;5073408;28;20023;-69
2020/12/26 11:13:17;;;;;;;10.73;6.00;;;;;;;;;;5073000;28;20016;-70
2020/12/26 11:15:43;;;;;;;10.65;6.07;;;;;;;;;;5072667;28;20192;-70
2020/12/26 11:18:08;;;;;;;12.10;6.07;;;;;;;;;;5073143;28;20477;-68
2020/12/26 11:20:34;;;;;;;12.18;6.35;;;;;;;;;;5073240;28;20024;-69
2020/12/26 11:23:00;;;;;;;9.98;5.65;;;;;;;;;;5073276;28;20147;-70
2020/12/26 11:25:25;;;;;;;10.05;5.47;;;;;;;;;;5073180;28;20048;-69
2020/12/26 11:27:51;;;;;;;10.20;5.85;;;;;;;;;;5073029;28;20435;-70
2020/12/26 11:30:17;;;;;;;9.63;5.97;;;;;;;;;;5038583;28;20066;-70
2020/12/26 11:32:43;;;;;;;12.15;5.97;;;;;;;;;;5072835;28;20060;-70
2020/12/26 11:35:08;;;;;;;11.68;6.07;;;;;;;;;;5072790;28;20031;-70
2020/12/26 11:37:34;;;;;;;10.40;5.95;;;;;;;;;;5072998;28;20376;-70
2020/12/26 11:39:59;;;;;;;12.43;5.43;;;;;;;;;;5072722;28;20377;-70
2020/12/26 11:42:26;;;;;;;9.77;5.53;;;;;;;;;;5054926;28;20099;-70
2020/12/26 11:44:52;;;;;;;10.85;5.93;;;;;;;;;;5072882;28;20043;-69
2020/12/26 11:47:17;;;;;;;9.30;5.50;;;;;;;;;;5054335;28;20020;-69
2020/12/26 11:49:42;;;;;;;9.30;5.13;;;;;;;;;;5072718;28;20029;-70
2020/12/26 11:52:08;;;;;;;11.90;6.63;;;;;;;;;;5054687;28;20381;-69
2020/12/26 11:54:33;;;;;;;10.38;4.20;;;;;;;;;;5072861;28;20036;-69
2020/12/26 11:56:59;;;;;;;8.40;5.05;;;;;;;;;;5072923;28;20020;-70
2020/12/26 11:59:25;;;;;;;11.07;5.20;;;;;;;;;;5054901;28;20460;-70
2020/12/26 12:01:54;;;;;;;7.75;4.68;;;;;;;;;;5072622;28;20103;-69
2020/12/26 12:04:20;;;;;;;10.88;5.28;;;;;;;;;;5054372;28;20025;-69
2020/12/26 12:06:46;;;;;;;9.95;5.15;;;;;;;;;;5072742;28;20032;-70
2020/12/26 12:09:12;;;;;;;9.25;4.88;;;;;;;;;;5072585;28;20487;-70
2020/12/26 12:11:38;;;;;;;9.98;5.72;;;;;;;;;;5037957;28;20025;-69
2020/12/26 12:14:03;;;;;;;10.57;6.45;;;;;;;;;;5054305;28;20035;-70
2020/12/26 12:16:29;;;;;;;11.55;6.03;;;;;;;;;;5071861;28;20021;-69
2020/12/26 12:18:54;;;;;;;11.38;5.38;;;;;;;;;;5054511;28;20021;-69
2020/12/26 12:21:20;;;;;;;9.30;5.38;;;;;;;;;;5072655;28;20500;-69
2020/12/26 12:23:45;;;;;;;8.02;5.07;;;;;;;;;;5054645;28;20055;-69
2020/12/26 12:26:18;;;;;;;8.75;4.88;;;;;;;;;;5074086;28;20427;-69
2020/12/26 12:28:45;;;;;;;8.18;4.93;;;;;;;;;;5058621;28;20096;-70
2020/12/26 12:31:10;;;;;;;11.10;5.80;;;;;;;;;;5076549;28;20020;-70
2020/12/26 12:33:36;;;;;;;11.43;5.85;;;;;;;;;;5076272;28;20086;-69
2020/12/26 12:36:03;;;;;;;8.57;4.75;;;;;;;;;;5076159;28;20024;-69
2020/12/26 12:38:29;;;;;;;10.55;5.43;;;;;;;;;;5076481;28;20024;-69
2020/12/26 12:40:54;;;;;;;11.98;5.38;;;;;;;;;;5076273;28;20432;-69
2020/12/26 12:43:19;;;;;;;8.45;5.18;;;;;;;;;;5076367;28;20024;-69
2020/12/26 12:45:45;;;;;;;10.50;5.35;;;;;;;;;;5075668;28;20021;-69
2020/12/26 12:48:10;;;;;;;11.23;5.57;;;;;;;;;;5057939;28;20055;-68
2020/12/26 12:50:36;;;;;;;10.57;5.47;;;;;;;;;;5076231;28;20017;-69
2020/12/26 12:53:02;;;;;;;11.77;5.82;;;;;;;;;;5076066;28;20024;-68
2020/12/26 12:55:28;;;;;;;12.27;5.70;;;;;;;;;;5076052;28;20024;-69
2020/12/26 12:57:53;;;;;;;9.43;5.45;;;;;;;;;;5075998;28;20469;-69
2020/12/26 13:00:19;;;;;;;12.45;5.40;;;;;;;;;;5075830;28;20095;-70
2020/12/26 13:02:44;;;;;;;11.60;5.82;;;;;;;;;;5057869;28;20090;-68
2020/12/26 13:05:10;;;;;;;10.75;5.78;;;;;;;;;;5041602;28;20048;-70
2020/12/26 13:07:35;;;;;;;12.40;5.28;;;;;;;;;;5075875;28;20020;-70
2020/12/26 13:10:01;;;;;;;8.88;4.60;;;;;;;;;;5075510;28;20056;-70
2020/12/26 13:12:26;;;;;;;10.05;5.10;;;;;;;;;;5075724;28;20021;-69
2020/12/26 13:14:52;;;;;;;12.98;6.03;;;;;;;;;;5075362;28;20074;-69
2020/12/26 13:17:18;;;;;;;9.90;5.47;;;;;;;;;;5075042;28;20016;-68
2020/12/26 13:19:43;;;;;;;12.43;5.93;;;;;;;;;;5075555;28;20070;-69
2020/12/26 13:22:09;;;;;;;9.20;5.13;;;;;;;;;;5057383;28;20012;-69
2020/12/26 13:24:34;;;;;;;11.27;5.00;;;;;;;;;;5075544;28;20020;-70
2020/12/26 13:27:00;;;;;;;12.63;6.38;;;;;;;;;;5040982;28;20029;-70
2020/12/26 13:29:26;;;;;;;14.13;6.55;;;;;;;;;;5075463;28;20021;-69
2020/12/26 13:31:51;;;;;;;12.80;6.72;;;;;;;;;;5075378;28;20103;-69
2020/12/26 13:34:17;;;;;;;10.98;6.10;;;;;;;;;;5074784;28;20041;-70
2020/12/26 13:36:42;;;;;;;13.80;6.70;;;;;;;;;;5074848;28;20050;-69
2020/12/26 13:39:08;;;;;;;10.45;5.80;;;;;;;;;;5075256;28;20025;-69
2020/12/26 13:41:33;;;;;;;10.13;5.95;;;;;;;;;;5057362;28;20028;-69
2020/12/26 13:43:59;;;;;;;11.60;4.82;;;;;;;;;;5057110;28;20025;-69
2020/12/26 13:46:24;;;;;;;11.38;5.22;;;;;;;;;;5074621;28;20031;-69
2020/12/26 13:48:50;;;;;;;7.45;4.75;;;;;;;;;;5057113;28;20112;-69
2020/12/26 13:51:16;;;;;;;9.65;5.45;;;;;;;;;;5075038;28;20023;-69
2020/12/26 13:53:42;;;;;;;9.35;5.28;;;;;;;;;;5075559;28;20021;-69
2020/12/26 13:56:07;;;;;;;9.48;5.45;;;;;;;;;;5074626;28;20033;-69
2020/12/26 13:58:33;;;;;;;10.32;5.15;;;;;;;;;;5075021;28;20020;-69
2020/12/26 14:00:58;;;;;;;8.57;4.78;;;;;;;;;;5074927;28;20021;-70
2020/12/26 14:03:24;;;;;;;10.65;5.32;;;;;;;;;;5056879;28;20051;-69
2020/12/26 14:05:49;;;;;;;10.90;5.95;;;;;;;;;;5074856;28;20069;-69
2020/12/26 14:08:15;;;;;;;11.10;6.00;;;;;;;;;;5074508;28;20066;-70
2020/12/26 14:10:40;;;;;;;10.00;5.15;;;;;;;;;;5074812;28;20381;-70
2020/12/26 14:13:06;;;;;;;13.32;5.93;;;;;;;;;;5056250;28;20032;-70
2020/12/26 14:15:32;;;;;;;11.05;5.93;;;;;;;;;;5056577;28;20035;-69
2020/12/26 14:17:58;;;;;;;13.23;5.93;;;;;;;;;;5073721;28;20016;-69
2020/12/26 14:20:24;;;;;;;11.50;5.00;;;;;;;;;;5074505;28;20100;-69
2020/12/26 14:22:49;;;;;;;12.20;6.05;;;;;;;;;;5074716;28;20441;-69